createdAt,value
2018-10-19T00:25:22.925Z,37.3
2018-10-19T00:26:12.771Z,37.3
2018-10-19T00:27:03.535Z,37.3
2018-10-19T00:27:52.885Z,37.3
2018-10-19T00:28:42.684Z,37.3
2018-10-19T00:29:33.307Z,37.3
2018-10-19T00:30:23.815Z,37.3
2018-10-19T00:31:12.813Z,37.3
2018-10-19T00:32:03.406Z,37.3
2018-10-19T00:32:52.382Z,37.3
2018-10-19T00:33:43.035Z,37.3
2018-10-19T00:34:33.112Z,37.3
2018-10-19T00:35:23.749Z,37.3
2018-10-19T00:36:13.295Z,37.3
2018-10-19T00:37:03.266Z,37.3
2018-10-19T00:37:53.610Z,37.3
2018-10-19T00:38:43.375Z,37.3
2018-10-19T00:39:33.106Z,37.3
2018-10-19T00:40:22.600Z,37.3
2018-10-19T00:41:14.783Z,37.3
2018-10-19T00:42:03.924Z,37.2
2018-10-19T00:42:53.427Z,37.2
2018-10-19T00:43:43.439Z,37.2
2018-10-19T00:44:33.771Z,37.2
2018-10-19T00:45:23.632Z,37.2
2018-10-19T00:46:14.213Z,37.2
2018-10-19T00:47:05.194Z,37.2
2018-10-19T00:47:53.527Z,37.2
2018-10-19T00:48:44.654Z,37.2
2018-10-19T00:49:34.192Z,37.2
2018-10-19T00:50:23.952Z,37.2
2018-10-19T00:51:16.020Z,37.2
2018-10-19T00:52:04.301Z,37.2
2018-10-19T00:52:54.171Z,37.1
2018-10-19T00:53:44.194Z,37.1
2018-10-19T00:54:35.107Z,37.1
2018-10-19T00:55:24.578Z,37.1
2018-10-19T00:56:14.963Z,37.1
2018-10-19T00:57:05.289Z,37.1
2018-10-19T00:57:55.054Z,37.1
2018-10-19T00:58:45.154Z,37.1
2018-10-19T00:59:35.188Z,37.1
2018-10-19T01:00:25.048Z,37.1
2018-10-19T01:01:14.996Z,37.1
2018-10-19T01:02:05.719Z,37.1
2018-10-19T01:02:55.037Z,37.1
2018-10-19T01:03:44.659Z,37.1
2018-10-19T01:04:34.740Z,37.1
2018-10-19T01:05:25.376Z,37.1
2018-10-19T01:06:16.028Z,37.1
2018-10-19T01:07:05.757Z,37.1
2018-10-19T01:07:56.113Z,37.1
2018-10-19T01:08:45.868Z,37.1
2018-10-19T01:09:35.664Z,37.1
2018-10-19T01:10:26.233Z,37.1
2018-10-19T01:11:18.419Z,37.1
2018-10-19T01:12:06.112Z,37.1
2018-10-19T01:12:55.895Z,37.1
2018-10-19T01:13:45.707Z,37.1
2018-10-19T01:14:36.040Z,37.1
2018-10-19T01:15:26.479Z,37
2018-10-19T01:16:16.454Z,37
2018-10-19T01:17:07.710Z,37
2018-10-19T01:17:56.665Z,37
2018-10-19T01:18:46.103Z,37
2018-10-19T01:19:36.684Z,37
2018-10-19T01:20:26.794Z,37
2018-10-19T01:21:17.247Z,37
2018-10-19T01:22:07.122Z,37
2018-10-19T01:22:56.872Z,37
2018-10-19T01:23:46.962Z,37
2018-10-19T01:24:36.780Z,37
2018-10-19T01:25:27.661Z,36.9
2018-10-19T01:26:17.181Z,36.9
2018-10-19T01:27:07.691Z,36.9
2018-10-19T01:27:56.412Z,36.9
2018-10-19T01:28:47.369Z,36.9
2018-10-19T01:29:37.466Z,36.9
2018-10-19T01:30:27.518Z,36.9
2018-10-19T01:31:17.853Z,36.9
2018-10-19T01:32:07.524Z,36.9
2018-10-19T01:32:58.363Z,36.9
2018-10-19T01:33:47.739Z,36.9
2018-10-19T01:34:37.811Z,36.9
2018-10-19T01:35:27.604Z,36.9
2018-10-19T01:36:17.966Z,36.9
2018-10-19T01:37:07.420Z,36.9
2018-10-19T01:37:58.612Z,36.9
2018-10-19T01:38:48.338Z,36.9
2018-10-19T01:39:38.017Z,36.9
2018-10-19T01:40:28.397Z,36.9
2018-10-19T01:41:18.961Z,36.9
2018-10-19T01:42:08.830Z,36.9
2018-10-19T01:42:58.715Z,36.9
2018-10-19T01:43:47.908Z,36.9
2018-10-19T01:44:37.155Z,36.9
2018-10-19T01:45:28.312Z,36.9
2018-10-19T01:46:18.648Z,36.9
2018-10-19T01:47:09.744Z,36.9
2018-10-19T01:47:58.225Z,36.9
2018-10-19T01:48:48.590Z,36.9
2018-10-19T01:49:38.608Z,36.8
2018-10-19T01:50:28.400Z,36.8
2018-10-19T01:51:19.493Z,36.8
2018-10-19T01:52:10.027Z,36.8
2018-10-19T01:52:58.708Z,36.8
2018-10-19T01:53:48.345Z,36.8
2018-10-19T01:54:39.029Z,36.8
2018-10-19T01:55:29.413Z,36.8
2018-10-19T01:56:19.928Z,36.8
2018-10-19T01:57:10.618Z,36.8
2018-10-19T01:57:59.545Z,36.8
2018-10-19T01:58:49.075Z,36.8
2018-10-19T01:59:40.030Z,36.8
2018-10-19T02:00:29.779Z,36.8
2018-10-19T02:01:19.760Z,36.8
2018-10-19T02:02:09.819Z,36.8
2018-10-19T02:03:00.197Z,36.8
2018-10-19T02:03:49.550Z,36.8
2018-10-19T02:04:40.720Z,36.8
2018-10-19T02:05:29.937Z,36.8
2018-10-19T02:06:20.486Z,36.8
2018-10-19T02:07:09.661Z,36.8
2018-10-19T02:08:00.048Z,36.7
2018-10-19T02:08:50.656Z,36.7
2018-10-19T02:09:40.411Z,36.8
2018-10-19T02:10:30.417Z,36.8
2018-10-19T02:11:20.373Z,36.8
2018-10-19T02:12:10.546Z,36.7
2018-10-19T02:13:00.619Z,36.7
2018-10-19T02:13:50.406Z,36.7
2018-10-19T02:14:40.179Z,36.7
2018-10-19T02:15:30.851Z,36.7
2018-10-19T02:16:19.798Z,36.7
2018-10-19T02:17:11.551Z,36.7
2018-10-19T02:18:01.002Z,36.7
2018-10-19T02:18:50.813Z,36.7
2018-10-19T02:19:39.996Z,36.7
2018-10-19T02:20:31.191Z,36.7
2018-10-19T02:21:21.015Z,36.7
2018-10-19T02:22:11.582Z,36.7
2018-10-19T02:23:02.307Z,36.6
2018-10-19T02:23:51.718Z,36.7
2018-10-19T02:24:41.225Z,36.6
2018-10-19T02:25:31.250Z,36.6
2018-10-19T02:26:21.301Z,36.6
2018-10-19T02:27:14.076Z,36.6
2018-10-19T02:28:02.080Z,36.6
2018-10-19T02:28:51.261Z,36.6
2018-10-19T02:29:42.144Z,36.6
2018-10-19T02:30:30.865Z,36.6
2018-10-19T02:31:21.557Z,36.6
2018-10-19T02:32:12.636Z,36.6
2018-10-19T02:33:03.010Z,36.6
2018-10-19T02:33:51.337Z,36.6
2018-10-19T02:34:42.012Z,36.6
2018-10-19T02:35:31.805Z,36.6
2018-10-19T02:36:22.701Z,36.6
2018-10-19T02:37:12.070Z,36.6
2018-10-19T02:38:02.223Z,36.6
2018-10-19T02:38:52.657Z,36.6
2018-10-19T02:39:42.656Z,36.6
2018-10-19T02:40:32.968Z,36.6
2018-10-19T02:41:23.605Z,36.6
2018-10-19T02:42:12.240Z,36.6
2018-10-19T02:43:02.543Z,36.6
2018-10-19T02:43:52.348Z,36.6
2018-10-19T02:44:42.535Z,36.6
2018-10-19T02:45:32.580Z,36.5
2018-10-19T02:46:22.957Z,36.5
2018-10-19T02:47:14.052Z,36.5
2018-10-19T02:48:02.730Z,36.5
2018-10-19T02:48:52.806Z,36.5
2018-10-19T02:49:42.836Z,36.5
2018-10-19T02:50:33.372Z,36.5
2018-10-19T02:51:24.317Z,36.5
2018-10-19T02:52:13.850Z,36.5
2018-10-19T02:53:04.001Z,36.5
2018-10-19T02:53:53.384Z,36.5
2018-10-19T02:54:43.169Z,36.5
2018-10-19T02:55:33.255Z,36.4
2018-10-19T02:56:23.289Z,36.4
2018-10-19T02:57:13.970Z,36.4
2018-10-19T02:58:04.497Z,36.4
2018-10-19T02:58:54.150Z,36.5
2018-10-19T02:59:43.800Z,36.4
2018-10-19T03:00:33.600Z,36.4
2018-10-19T03:01:23.691Z,36.4
2018-10-19T03:02:13.724Z,36.4
2018-10-19T03:03:04.806Z,36.4
2018-10-19T03:03:54.989Z,36.4
2018-10-19T03:04:44.202Z,36.4
2018-10-19T03:05:34.797Z,36.4
2018-10-19T03:06:23.721Z,36.4
2018-10-19T03:07:14.718Z,36.4
2018-10-19T03:08:04.445Z,36.4
2018-10-19T03:08:54.973Z,36.4
2018-10-19T03:09:44.954Z,36.4
2018-10-19T03:10:34.971Z,36.4
2018-10-19T03:11:25.858Z,36.4
2018-10-19T03:12:15.163Z,36.4
2018-10-19T03:13:04.810Z,36.4
2018-10-19T03:13:55.372Z,36.4
2018-10-19T03:14:45.214Z,36.4
2018-10-19T03:15:35.041Z,36.4
2018-10-19T03:16:25.374Z,36.4
2018-10-19T03:17:16.877Z,36.4
2018-10-19T03:18:05.251Z,36.4
2018-10-19T03:18:56.364Z,36.3
2018-10-19T03:19:45.963Z,36.3
2018-10-19T03:20:34.945Z,36.3
2018-10-19T03:21:25.264Z,36.3
2018-10-19T03:22:14.536Z,36.3
2018-10-19T03:23:07.341Z,36.3
2018-10-19T03:23:56.208Z,36.3
2018-10-19T03:24:45.755Z,36.3
2018-10-19T03:25:36.878Z,36.3
2018-10-19T03:26:26.538Z,36.3
2018-10-19T03:27:17.979Z,36.3
2018-10-19T03:28:06.190Z,36.3
2018-10-19T03:28:56.278Z,36.3
2018-10-19T03:29:46.159Z,36.3
2018-10-19T03:30:36.406Z,36.3
2018-10-19T03:31:26.293Z,36.3
2018-10-19T03:32:15.705Z,36.3
2018-10-19T03:33:07.454Z,36.3
2018-10-19T03:33:56.482Z,36.3
2018-10-19T03:34:47.254Z,36.3
2018-10-19T03:35:36.207Z,36.3
2018-10-19T03:36:26.479Z,36.3
2018-10-19T03:37:16.905Z,36.3
2018-10-19T03:38:06.414Z,36.3
2018-10-19T03:38:57.398Z,36.3
2018-10-19T03:39:46.834Z,36.2
2018-10-19T03:40:37.135Z,36.3
2018-10-19T03:41:26.698Z,36.3
2018-10-19T03:42:16.731Z,36.2
2018-10-19T03:43:06.746Z,36.2
2018-10-19T03:43:57.369Z,36.2
2018-10-19T03:44:47.499Z,36.2
2018-10-19T03:45:37.213Z,36.2
2018-10-19T03:46:27.598Z,36.2
2018-10-19T03:47:18.227Z,36.2
2018-10-19T03:48:07.488Z,36.2
2018-10-19T03:48:57.645Z,36.2
2018-10-19T03:49:47.815Z,36.2
2018-10-19T03:50:37.906Z,36.2
2018-10-19T03:51:27.121Z,36.2
2018-10-19T03:52:17.367Z,36.2
2018-10-19T03:53:09.330Z,36.1
2018-10-19T03:53:57.905Z,36.1
2018-10-19T03:54:47.353Z,36.1
2018-10-19T03:55:38.496Z,36.1
2018-10-19T03:56:28.560Z,36.1
2018-10-19T03:57:20.295Z,36.1
2018-10-19T03:58:08.413Z,36.1
2018-10-19T03:58:58.216Z,36.1
2018-10-19T03:59:48.584Z,36.1
2018-10-19T04:00:38.282Z,36.1
2018-10-19T04:01:28.713Z,36.1
2018-10-19T04:02:19.045Z,36.1
2018-10-19T04:03:10.513Z,36.1
2018-10-19T04:03:58.616Z,36.1
2018-10-19T04:04:48.959Z,36.1
2018-10-19T04:05:39.470Z,36.1
2018-10-19T04:06:29.062Z,36.1
2018-10-19T04:07:18.797Z,36.1
2018-10-19T04:08:08.582Z,36.1
2018-10-19T04:08:59.338Z,36.1
2018-10-19T04:09:49.045Z,36.1
2018-10-19T04:10:39.340Z,36.1
2018-10-19T04:11:29.377Z,36.1
2018-10-19T04:12:19.457Z,36.1
2018-10-19T04:13:09.214Z,36.1
2018-10-19T04:13:59.600Z,36.1
2018-10-19T04:14:49.363Z,36.1
2018-10-19T04:15:40.280Z,36
2018-10-19T04:16:29.763Z,36
2018-10-19T04:17:20.019Z,36.1
2018-10-19T04:18:10.167Z,36
2018-10-19T04:18:59.445Z,36
2018-10-19T04:19:49.472Z,36
2018-10-19T04:20:39.887Z,36
2018-10-19T04:21:30.415Z,36
2018-10-19T04:22:19.894Z,36
2018-10-19T04:23:11.405Z,36
2018-10-19T04:24:00.329Z,36
2018-10-19T04:24:50.134Z,36
2018-10-19T04:25:40.735Z,35.9
2018-10-19T04:26:31.324Z,36
2018-10-19T04:27:22.446Z,36
2018-10-19T04:28:10.588Z,35.9
2018-10-19T04:29:01.352Z,35.9
2018-10-19T04:29:51.072Z,35.9
2018-10-19T04:30:41.066Z,35.9
2018-10-19T04:31:30.904Z,35.9
2018-10-19T04:32:20.059Z,35.9
2018-10-19T04:33:12.061Z,35.9
2018-10-19T04:34:00.509Z,35.9
2018-10-19T04:34:51.135Z,35.9
2018-10-19T04:35:40.646Z,35.9
2018-10-19T04:36:31.224Z,35.9
2018-10-19T04:54:42.303Z,35.8
2018-10-19T04:55:33.184Z,35.8
2018-10-19T04:56:22.392Z,35.8
2018-10-19T04:57:15.197Z,35.8
2018-10-19T04:58:02.808Z,35.8
2018-10-19T04:58:52.872Z,35.8
2018-10-19T04:59:42.925Z,35.8
2018-10-19T05:00:33.300Z,35.8
2018-10-19T05:01:23.052Z,35.8
2018-10-19T05:02:13.439Z,35.8
2018-10-19T05:03:04.252Z,35.8
2018-10-19T05:03:53.209Z,35.8
2018-10-19T05:04:44.749Z,35.8
2018-10-19T05:05:35.579Z,35.8
2018-10-19T05:06:24.641Z,35.8
2018-10-19T05:07:13.820Z,35.8
2018-10-19T05:08:04.680Z,35.8
2018-10-19T05:08:53.036Z,35.8
2018-10-19T05:09:43.647Z,35.8
2018-10-19T05:10:33.535Z,35.8
2018-10-19T05:11:24.616Z,35.8
2018-10-19T05:12:13.885Z,35.8
2018-10-19T05:13:04.436Z,35.8
2018-10-19T05:13:54.983Z,35.7
2018-10-19T05:14:44.318Z,35.7
2018-10-19T05:15:33.877Z,35.7
2018-10-19T05:16:24.837Z,35.7
2018-10-19T05:17:15.272Z,35.7
2018-10-19T05:18:04.760Z,35.7
2018-10-19T05:18:54.376Z,35.7
2018-10-19T05:19:44.688Z,35.7
2018-10-19T05:20:34.498Z,35.7
2018-10-19T05:21:24.940Z,35.7
2018-10-19T05:22:14.885Z,35.7
2018-10-19T05:23:06.178Z,35.7
2018-10-19T05:23:55.346Z,35.7
2018-10-19T05:24:46.536Z,35.7
2018-10-19T05:25:34.957Z,35.6
2018-10-19T05:26:25.376Z,35.7
2018-10-19T05:27:15.309Z,35.7
2018-10-19T05:28:04.352Z,35.6
2018-10-19T05:28:55.123Z,35.6
2018-10-19T05:29:44.773Z,35.6
2018-10-19T05:30:35.895Z,35.6
2018-10-19T05:31:25.750Z,35.6
2018-10-19T05:32:17.353Z,35.6
2018-10-19T05:33:06.771Z,35.6
2018-10-19T05:33:55.373Z,35.6
2018-10-19T05:34:46.180Z,35.6
2018-10-19T05:35:36.196Z,35.6
2018-10-19T05:36:26.249Z,35.6
2018-10-19T05:37:16.324Z,35.6
2018-10-19T05:38:06.879Z,35.6
2018-10-19T05:38:55.383Z,35.6
2018-10-19T05:39:46.518Z,35.6
2018-10-19T05:40:36.067Z,35.6
2018-10-19T05:41:26.375Z,35.6
2018-10-19T05:42:16.264Z,35.6
2018-10-19T05:43:06.811Z,35.6
2018-10-19T05:43:56.497Z,35.6
2018-10-19T05:44:46.413Z,35.6
2018-10-19T05:45:35.783Z,35.6
2018-10-19T05:46:26.381Z,35.6
2018-10-19T05:47:18.317Z,35.6
2018-10-19T05:48:06.201Z,35.6
2018-10-19T05:48:56.563Z,35.6
2018-10-19T05:49:46.932Z,35.6
2018-10-19T05:50:36.690Z,35.5
2018-10-19T05:51:27.804Z,35.6
2018-10-19T05:52:18.209Z,35.5
2018-10-19T05:53:08.748Z,35.5
2018-10-19T05:53:57.476Z,35.5
2018-10-19T05:54:46.365Z,35.5
2018-10-19T05:55:35.892Z,35.5
2018-10-19T05:56:27.139Z,35.5
2018-10-19T05:57:16.611Z,35.5
2018-10-19T05:58:06.967Z,35.5
2018-10-19T05:58:58.179Z,35.5
2018-10-19T05:59:47.318Z,35.5
2018-10-19T06:00:37.662Z,35.5
2018-10-19T06:01:26.867Z,35.5
2018-10-19T06:02:18.820Z,35.5
2018-10-19T06:03:08.046Z,35.4
2018-10-19T06:03:57.698Z,35.5
2018-10-19T06:04:47.844Z,35.5
2018-10-19T06:05:37.555Z,35.4
2018-10-19T06:06:27.576Z,35.4
2018-10-19T06:07:17.607Z,35.5
2018-10-19T06:08:08.687Z,35.4
2018-10-19T06:08:57.769Z,35.4
2018-10-19T06:09:48.419Z,35.4
2018-10-19T06:10:38.712Z,35.4
2018-10-19T06:11:27.684Z,35.4
2018-10-19T06:12:17.799Z,35.4
2018-10-19T06:13:08.856Z,35.4
2018-10-19T06:13:59.193Z,35.4
2018-10-19T06:14:48.217Z,35.4
2018-10-19T06:15:38.807Z,35.4
2018-10-19T06:16:28.887Z,35.4
2018-10-19T06:17:19.901Z,35.4
2018-10-19T06:18:08.419Z,35.4
2018-10-19T06:18:59.011Z,35.4
2018-10-19T06:19:49.383Z,35.4
2018-10-19T06:20:39.719Z,35.4
2018-10-19T06:21:28.986Z,35.4
2018-10-19T06:22:19.537Z,35.4
2018-10-19T06:23:10.340Z,35.4
2018-10-19T06:23:59.122Z,35.4
2018-10-19T06:24:49.502Z,35.3
2018-10-19T06:25:38.955Z,35.4
2018-10-19T06:26:31.269Z,35.4
2018-10-19T06:27:19.376Z,35.4
2018-10-19T06:28:09.456Z,35.4
2018-10-19T06:29:00.184Z,35.4
2018-10-19T06:29:49.595Z,35.3
2018-10-19T06:30:39.345Z,35.3
2018-10-19T06:31:29.962Z,35.3
2018-10-19T06:32:20.101Z,35.3
2018-10-19T06:33:10.048Z,35.3
2018-10-19T06:33:59.887Z,35.3
2018-10-19T06:34:49.624Z,35.3
2018-10-19T06:35:39.996Z,35.3
2018-10-19T06:36:30.037Z,35.3
2018-10-19T06:37:20.391Z,35.3
2018-10-19T06:38:10.669Z,35.3
2018-10-19T06:39:00.529Z,35.3
2018-10-19T06:39:50.313Z,35.3
2018-10-19T06:40:41.168Z,35.3
2018-10-19T06:41:30.711Z,35.3
2018-10-19T06:42:21.078Z,35.3
2018-10-19T06:43:09.783Z,35.3
2018-10-19T06:44:01.901Z,35.3
2018-10-19T06:44:50.773Z,35.3
2018-10-19T06:45:40.586Z,35.3
2018-10-19T06:46:30.995Z,30
2018-10-19T06:47:22.589Z,28.6
2018-10-19T06:48:11.163Z,37.7
2018-10-19T06:49:01.329Z,41
2018-10-19T06:49:50.983Z,41.7
2018-10-19T06:50:40.729Z,41.8
2018-10-19T06:51:30.745Z,41.5
2018-10-19T06:52:21.276Z,41.3
2018-10-19T06:53:13.320Z,41
2018-10-19T06:54:01.078Z,40.6
2018-10-19T06:54:50.831Z,40.4
2018-10-19T06:55:40.939Z,40.2
2018-10-19T06:56:32.096Z,39.9
2018-10-19T06:57:21.890Z,39.8
2018-10-19T06:58:12.499Z,39.6
2018-10-19T06:59:04.004Z,39.4
2018-10-19T06:59:51.845Z,39.3
2018-10-19T07:00:41.791Z,39.2
2018-10-19T07:01:31.825Z,39.1
2018-10-19T07:02:22.580Z,39
2018-10-19T07:03:12.563Z,38.9
2018-10-19T07:04:02.345Z,38.8
2018-10-19T07:04:51.847Z,38.7
2018-10-19T07:05:43.384Z,38.6
2018-10-19T07:06:32.547Z,37.7
2018-10-19T07:07:21.754Z,38.9
2018-10-19T07:08:14.179Z,45.9
2018-10-19T07:09:02.727Z,48.8
2018-10-19T07:09:52.504Z,48.1
2018-10-19T07:10:42.302Z,46.1
2018-10-19T07:11:31.747Z,44.9
2018-10-19T07:12:22.955Z,44.9
2018-10-19T07:13:12.732Z,45.4
2018-10-19T07:14:04.188Z,46.1
2018-10-19T07:14:53.194Z,46.5
2018-10-19T07:15:42.850Z,46.6
2018-10-19T07:16:33.603Z,46.5
2018-10-19T07:17:23.695Z,46.3
2018-10-19T07:18:12.972Z,46.3
2018-10-19T07:19:04.132Z,46.5
2018-10-19T07:19:53.635Z,46.9
2018-10-19T07:20:43.144Z,47.3
2018-10-19T07:21:33.706Z,47.5
2018-10-19T07:22:23.756Z,47.5
2018-10-19T07:23:14.458Z,47.3
2018-10-19T07:24:03.586Z,47.1
2018-10-19T07:24:54.257Z,46.9
2018-10-19T07:25:43.683Z,46.8
2018-10-19T07:26:34.048Z,46.7
2018-10-19T07:27:24.081Z,46.6
2018-10-19T07:28:14.154Z,46.4
2018-10-19T07:29:04.575Z,46.3
2018-10-19T07:29:54.271Z,46.2
2018-10-19T07:30:43.771Z,46.1
2018-10-19T07:31:34.696Z,46
2018-10-19T07:32:24.471Z,45.9
2018-10-19T07:33:14.786Z,45.8
2018-10-19T07:34:04.961Z,45.9
2018-10-19T07:34:54.315Z,46
2018-10-19T07:35:44.532Z,46.3
2018-10-19T07:36:36.754Z,46.4
2018-10-19T07:37:25.118Z,46.6
2018-10-19T07:38:16.043Z,46.7
2018-10-19T07:39:04.127Z,46.8
2018-10-19T07:39:54.822Z,46.8
2018-10-19T07:40:44.862Z,47.1
2018-10-19T07:41:34.872Z,47.4
2018-10-19T07:42:27.477Z,47.9
2018-10-19T07:43:15.246Z,48.4
2018-10-19T07:44:06.901Z,48.6
2018-10-19T07:44:54.836Z,48.5
2018-10-19T07:45:44.847Z,48.2
2018-10-19T07:46:34.885Z,47.9
2018-10-19T07:47:26.273Z,47.7
2018-10-19T07:48:18.341Z,47.6
2018-10-19T07:49:05.388Z,47.4
2018-10-19T07:49:55.399Z,47.4
2018-10-19T07:50:45.796Z,47.3
2018-10-19T07:51:35.855Z,47.2
2018-10-19T07:52:25.634Z,47.2
2018-10-19T07:53:16.673Z,47.4
2018-10-19T07:54:07.377Z,47.5
2018-10-19T07:54:56.414Z,47.6
2018-10-19T07:55:45.337Z,47.8
2018-10-19T07:56:35.665Z,48.1
2018-10-19T07:57:26.277Z,48.6
2018-10-19T07:58:16.624Z,49.1
2018-10-19T07:59:07.650Z,49.6
2018-10-19T07:59:56.739Z,49.9
2018-10-19T08:00:47.088Z,50.2
2018-10-19T08:01:36.916Z,50.4
2018-10-19T08:02:26.952Z,50.6
2018-10-19T08:03:16.717Z,50.6
2018-10-19T08:04:06.819Z,50.6
2018-10-19T08:04:57.298Z,50.4
2018-10-19T08:05:46.062Z,50.1
2018-10-19T08:06:37.251Z,49.8
2018-10-19T08:07:27.325Z,49.6
2018-10-19T08:08:17.954Z,49.8
2018-10-19T08:09:06.396Z,50.3
2018-10-19T08:09:57.464Z,50.8
2018-10-19T08:10:47.614Z,51.3
2018-10-19T08:11:39.186Z,51.6
2018-10-19T08:12:27.658Z,51.9
2018-10-19T08:14:08.990Z,51.8
2018-10-19T08:14:57.300Z,51.7
2018-10-19T08:15:47.963Z,51.8
2018-10-19T08:16:38.038Z,52.1
2018-10-19T08:17:27.516Z,52.6
2018-10-19T08:18:18.088Z,53
2018-10-19T08:19:07.890Z,53.4
2018-10-19T08:19:57.397Z,53.6
2018-10-19T08:20:47.818Z,53.8
2018-10-19T08:21:38.079Z,53.9
2018-10-19T08:22:27.660Z,54.1
2018-10-19T08:23:19.114Z,54.3
2018-10-19T08:24:08.273Z,54.5
2018-10-19T08:24:58.325Z,54.8
2018-10-19T08:25:48.660Z,54.9
2018-10-19T08:26:38.498Z,54.9
2018-10-19T08:27:30.899Z,54.8
2018-10-19T08:28:18.566Z,54.3
2018-10-19T08:29:10.145Z,53.6
2018-10-19T08:29:58.412Z,53
2018-10-19T08:30:48.480Z,52.7
2018-10-19T08:31:38.637Z,52.6
2018-10-19T08:32:28.935Z,52.6
2018-10-19T08:33:19.194Z,52.8
2018-10-19T08:34:09.045Z,52.9
2018-10-19T08:34:59.544Z,53
2018-10-19T08:35:48.900Z,53.1
2018-10-19T08:36:39.621Z,53.3
2018-10-19T08:37:28.872Z,53.4
2018-10-19T08:38:19.441Z,53.6
2018-10-19T08:39:09.737Z,53.8
2018-10-19T08:39:59.804Z,54
2018-10-19T08:40:49.849Z,54.1
2018-10-19T08:41:40.653Z,54.4
2018-10-19T08:42:29.935Z,54.5
2018-10-19T08:43:21.671Z,54.7
2018-10-19T08:44:09.223Z,54.8
2018-10-19T08:44:59.686Z,55.1
2018-10-19T08:45:48.828Z,55.3
2018-10-19T08:46:40.023Z,55.4
2018-10-19T08:47:29.859Z,55.6
2018-10-19T08:48:19.536Z,55.8
2018-10-19T08:49:10.743Z,55.9
2018-10-19T08:49:59.696Z,56.2
2018-10-19T08:50:49.557Z,56.4
2018-10-19T08:51:40.126Z,56.6
2018-10-19T08:52:30.445Z,56.8
2018-10-19T09:09:01.316Z,58.6
2018-10-19T09:10:41.200Z,58.5
2018-10-19T09:11:32.348Z,58.5
2018-10-19T09:12:21.454Z,58.8
2018-10-19T09:13:10.877Z,59.1
2018-10-19T09:14:01.392Z,59.4
2018-10-19T09:14:50.922Z,59.7
2018-10-19T09:15:41.219Z,59.9
2018-10-19T09:16:31.312Z,60.1
2018-10-19T09:17:22.706Z,60.2
2018-10-19T09:18:11.368Z,60.4
2018-10-19T09:19:02.586Z,60.6
2018-10-19T09:19:50.921Z,60.8
2018-10-19T09:20:40.721Z,60.9
2018-10-19T09:21:31.636Z,61.1
2018-10-19T09:22:21.973Z,61.3
2018-10-19T09:23:12.810Z,61.4
2018-10-19T09:24:02.067Z,61.6
2018-10-19T09:24:51.389Z,61.8
2018-10-19T09:25:41.440Z,61.9
2018-10-19T09:26:31.689Z,62
2018-10-19T09:27:22.560Z,62.2
2018-10-19T09:28:12.126Z,62.3
2018-10-19T09:29:03.559Z,62.4
2018-10-19T09:29:52.031Z,62.5
2018-10-19T09:30:42.341Z,62.6
2018-10-19T09:31:31.806Z,62.6
2018-10-19T09:32:22.022Z,62.7
2018-10-19T09:33:14.024Z,62.8
2018-10-19T09:34:02.556Z,62.9
2018-10-19T09:34:52.370Z,63
2018-10-19T09:35:44.032Z,63.1
2018-10-19T09:36:37.097Z,63.2
2018-10-19T09:37:21.673Z,63.2
2018-10-19T09:38:12.379Z,63.3
2018-10-19T09:39:02.821Z,63.4
2018-10-19T09:39:53.259Z,63.5
2018-10-19T09:40:43.182Z,63.6
2018-10-19T09:41:33.466Z,63.8
2018-10-19T09:42:23.286Z,63.9
2018-10-19T09:43:13.921Z,63.9
2018-10-19T09:44:03.584Z,64.1
2018-10-19T09:44:53.885Z,64.1
2018-10-19T09:45:43.444Z,64.3
2018-10-19T09:46:33.248Z,64.4
2018-10-19T09:47:24.179Z,64.4
2018-10-19T09:48:13.926Z,64.5
2018-10-19T09:49:04.972Z,64.6
2018-10-19T09:49:54.514Z,64.7
2018-10-19T09:50:44.076Z,64.7
2018-10-19T09:51:33.918Z,64.8
2018-10-19T09:52:23.945Z,64.8
2018-10-19T09:53:15.077Z,64.9
2018-10-19T09:54:03.491Z,64.9
2018-10-19T09:54:53.819Z,65
2018-10-19T09:55:43.581Z,65.1
2018-10-19T09:56:33.967Z,65.1
2018-10-19T09:57:24.598Z,65.3
2018-10-19T09:58:14.065Z,65.3
2018-10-19T09:59:04.978Z,65.3
2018-10-19T09:59:53.890Z,65.4
2018-10-19T10:00:44.813Z,65.4
2018-10-19T10:01:34.359Z,65.4
2018-10-19T10:02:24.725Z,65.5
2018-10-19T10:03:17.170Z,65.6
2018-10-19T10:04:05.293Z,65.7
2018-10-19T10:04:55.808Z,65.8
2018-10-19T10:05:45.259Z,65.8
2018-10-19T10:06:34.807Z,65.9
2018-10-19T10:07:24.817Z,65.9
2018-10-19T10:08:15.182Z,65.9
2018-10-19T10:09:06.494Z,65.9
2018-10-19T10:09:54.740Z,66
2018-10-19T10:10:44.712Z,66
2018-10-19T10:11:35.487Z,66.1
2018-10-19T10:12:25.519Z,66.1
2018-10-19T10:13:16.860Z,66.2
2018-10-19T10:14:04.999Z,66.3
2018-10-19T10:14:57.728Z,66.4
2018-10-19T10:15:46.617Z,66.4
2018-10-19T10:16:35.857Z,66.5
2018-10-19T10:17:25.552Z,66.6
2018-10-19T10:18:15.296Z,66.7
2018-10-19T10:19:06.929Z,66.8
2018-10-19T10:19:55.999Z,66.8
2018-10-19T10:20:46.848Z,66.8
2018-10-19T10:21:35.512Z,66.9
2018-10-19T10:22:26.189Z,66.9
2018-10-19T10:23:16.201Z,66.9
2018-10-19T10:24:06.604Z,66.9
2018-10-19T10:24:57.355Z,67
2018-10-19T10:25:45.868Z,67.1
2018-10-19T10:26:36.194Z,67.1
2018-10-19T10:27:25.978Z,67.1
2018-10-19T10:28:17.934Z,67.1
2018-10-19T10:29:06.956Z,67.1
2018-10-19T10:29:56.743Z,67.3
2018-10-19T10:30:46.291Z,67.3
2018-10-19T10:31:37.128Z,67.4
2018-10-19T10:32:28.041Z,67.4
2018-10-19T10:33:16.746Z,67.4
2018-10-19T10:34:06.933Z,67.6
2018-10-19T10:34:57.085Z,67.6
2018-10-19T10:35:47.399Z,67.7
2018-10-19T10:36:37.730Z,67.8
2018-10-19T10:37:26.997Z,67.8
2018-10-19T10:38:17.365Z,67.8
2018-10-19T10:39:10.762Z,67.9
2018-10-19T10:39:57.656Z,68.1
2018-10-19T10:40:47.550Z,68.1
2018-10-19T10:41:38.155Z,68.3
2018-10-19T10:42:27.391Z,68.4
2018-10-19T10:43:18.597Z,68.6
2018-10-19T10:44:07.493Z,68.7
2018-10-19T10:44:58.139Z,68.8
2018-10-19T10:45:47.663Z,68.9
2018-10-19T10:46:38.221Z,68.9
2018-10-19T10:47:27.772Z,69
2018-10-19T10:48:17.265Z,69.1
2018-10-19T10:49:09.330Z,69.1
2018-10-19T10:49:57.947Z,69.1
2018-10-19T10:50:48.332Z,69
2018-10-19T10:51:37.501Z,68.8
2018-10-19T10:52:28.677Z,68.5
2018-10-19T10:53:17.893Z,68.1
2018-10-19T10:54:07.411Z,67.8
2018-10-19T10:54:58.931Z,67.5
2018-10-19T10:55:48.782Z,67.2
2018-10-19T10:56:39.189Z,67.1
2018-10-19T10:57:28.486Z,67.2
2018-10-19T10:58:19.532Z,67.6
2018-10-19T10:59:08.637Z,68.3
2018-10-19T10:59:59.231Z,68.5
2018-10-19T11:00:48.751Z,68.2
2018-10-19T11:01:38.834Z,67.4
2018-10-19T11:02:29.926Z,66.4
2018-10-19T11:03:19.216Z,65.5
2018-10-19T11:04:10.519Z,64.9
2018-10-19T11:04:58.491Z,64.4
2018-10-19T11:05:48.823Z,64.3
2018-10-19T11:06:39.723Z,64.2
2018-10-19T11:07:34.024Z,64.1
2018-10-19T11:08:19.928Z,64
2018-10-19T11:09:09.114Z,63.8
2018-10-19T11:10:00.156Z,63.6
2018-10-19T11:10:49.796Z,63.4
2018-10-19T11:11:39.616Z,63.3
2018-10-19T11:12:29.900Z,63.1
2018-10-19T11:13:19.754Z,63
2018-10-19T11:14:10.030Z,62.9
2018-10-19T11:14:59.515Z,62.9
2018-10-19T11:15:50.498Z,62.8
2018-10-19T11:16:39.954Z,62.6
2018-10-19T11:17:30.486Z,62.4
2018-10-19T11:18:19.850Z,62.1
2018-10-19T11:19:11.888Z,61.8
2018-10-19T11:19:59.795Z,61.5
2018-10-19T11:20:50.310Z,61.3
2018-10-19T11:21:40.911Z,61
2018-10-19T11:22:30.665Z,60.8
2018-10-19T11:23:20.423Z,60.7
2018-10-19T11:24:12.053Z,60.9
2018-10-19T11:25:01.462Z,61.4
2018-10-19T11:25:50.641Z,62.4
2018-10-19T11:26:40.937Z,63.4
2018-10-19T11:27:31.269Z,64.4
2018-10-19T11:28:21.645Z,64.9
2018-10-19T11:29:11.120Z,65.1
2018-10-19T11:30:00.943Z,64.9
2018-10-19T11:30:52.542Z,64.9
2018-10-19T11:31:41.352Z,65.1
2018-10-19T11:32:31.687Z,65.5
2018-10-19T11:33:21.467Z,66.1
2018-10-19T11:34:12.148Z,66.6
2018-10-19T11:35:00.775Z,66.9
2018-10-19T11:35:51.721Z,66.9
2018-10-19T11:36:41.971Z,66.8
2018-10-19T11:37:31.931Z,66.6
2018-10-19T11:38:21.856Z,66.3
2018-10-19T11:39:12.442Z,66.1
2018-10-19T11:40:02.796Z,66.1
2018-10-19T11:40:52.313Z,66.3
2018-10-19T11:41:42.387Z,66.3
2018-10-19T11:42:32.176Z,66.4
2018-10-19T11:43:23.672Z,66.4
2018-10-19T11:44:12.241Z,66.7
2018-10-19T11:45:02.659Z,66.9
2018-10-19T11:45:52.193Z,67.3
2018-10-19T11:46:41.779Z,67.4
2018-10-19T11:47:32.799Z,67.6
2018-10-19T11:48:22.358Z,67.8
2018-10-19T11:49:13.533Z,67.6
2018-10-19T11:50:02.749Z,67.3
2018-10-19T11:50:52.461Z,66.9
2018-10-19T11:51:43.123Z,66.4
2018-10-19T11:52:32.298Z,65.8
2018-10-19T11:53:22.933Z,65.3
2018-10-19T11:54:13.366Z,65.3
2018-10-19T11:55:04.121Z,65.5
2018-10-19T11:55:52.301Z,65.7
2018-10-19T11:56:43.183Z,65.5
2018-10-19T11:57:33.585Z,65.1
2018-10-19T11:58:23.575Z,64.4
2018-10-19T11:59:12.982Z,63.9
2018-10-19T12:00:03.468Z,63.8
2018-10-19T12:00:53.403Z,64
2018-10-19T12:01:43.619Z,64.5
2018-10-19T12:02:33.881Z,65.1
2018-10-19T12:03:24.289Z,65.8
2018-10-19T12:04:15.335Z,66.3
2018-10-19T12:05:03.537Z,66.4
2018-10-19T12:05:53.615Z,66.4
2018-10-19T12:06:43.927Z,66.3
2018-10-19T12:07:34.247Z,65.9
2018-10-19T12:08:24.430Z,65.1